Eyr Myken — LCQU — position and weather

sailwx.info

Track history (hours):
 
Tides and Currents Weather Stations Pressure Air Temp Water Temp Dewpoint Dewpoint Depression Visibility Wind Speed Wind Dir Waves Ship Positions

Eyr Myken

Last reported at 2016-Jul-23 19:06 UTC. Time now 2016-Jul-24 05:01 UTC.
Position N 66°35' E 013°10'.

Length 18 m; draft 1.5 m.

Type: Medical transport. MMSI: 257054000.

Date/timePositionNaut miles runAvg speedWind from/ knotsBaromVisibWave heightAir tempDewpointWater temp
2016-Jul-23 19:06N 66°35' E 013°10'5 1.2
2016-Jul-23 15:28N 66°36' E 012°59'5 0.8
2016-Jul-23 09:18N 66°34' E 013°11'5 7.2
2016-Jul-23 08:33N 66°31' E 013°00'1 0.1
2016-Jul-22 22:10N 66°32' E 012°59'12 0.5
2016-Jul-21 21:33N 66°21' E 012°46'23 4.6
2016-Jul-21 16:28N 66°41' E 013°13'4 1.6
2016-Jul-21 14:15N 66°39' E 013°05'  
2016-Jul-18 09:18N 66°26' E 012°55'6 3.1
2016-Jul-18 07:24N 66°21' E 012°56'9 0.2
2016-Jul-16 10:33N 66°29' E 012°51'8 3.6
2016-Jul-16 08:27N 66°22' E 012°57'2 0.1
2016-Jul-14 23:33N 66°24' E 012°59'3 3.0
2016-Jul-14 22:26N 66°21' E 012°57'8 0.5
2016-Jul-14 08:21N 66°28' E 012°55'2625.7
2016-Jul-14 07:19N 66°03' E 012°39'1215.8
2016-Jul-14 06:33N 66°15' E 012°34'8 7.9
2016-Jul-14 05:33N 66°22' E 012°38'  
Track history (hours):
 
Tides and Currents Weather Stations Pressure Air Temp Water Temp Dewpoint Dewpoint Depression Visibility Wind Speed Wind Dir Waves Ship Positions

Eyr Myken

Last reported at 2016-Jul-23 19:06 UTC. Time now 2016-Jul-24 05:01 UTC.
Position N 66°35' E 013°10'.

Length 18 m; draft 1.5 m.

Type: Medical transport. MMSI: 257054000.

Date/timePositionNaut miles runAvg speedWind from/ knotsBaromVisibWave heightAir tempDewpointWater temp
2016-Jul-23 19:06N 66°35' E 013°10'5 1.2
2016-Jul-23 15:28N 66°36' E 012°59'5 0.8
2016-Jul-23 09:18N 66°34' E 013°11'5 7.2
2016-Jul-23 08:33N 66°31' E 013°00'1 0.1
2016-Jul-22 22:10N 66°32' E 012°59'12 0.5
2016-Jul-21 21:33N 66°21' E 012°46'23 4.6
2016-Jul-21 16:28N 66°41' E 013°13'4 1.6
2016-Jul-21 14:15N 66°39' E 013°05'  
2016-Jul-18 09:18N 66°26' E 012°55'6 3.1
2016-Jul-18 07:24N 66°21' E 012°56'9 0.2
2016-Jul-16 10:33N 66°29' E 012°51'8 3.6
2016-Jul-16 08:27N 66°22' E 012°57'2 0.1
2016-Jul-14 23:33N 66°24' E 012°59'3 3.0
2016-Jul-14 22:26N 66°21' E 012°57'8 0.5
2016-Jul-14 08:21N 66°28' E 012°55'2625.7
2016-Jul-14 07:19N 66°03' E 012°39'1215.8
2016-Jul-14 06:33N 66°15' E 012°34'8 7.9
2016-Jul-14 05:33N 66°22' E 012°38'  

Dump ship's entire track history